Tyrone, NM

4:58 AM MDT on July 26, 2016 (GMT -0600)
Grant County

Weather History for KSVC - January, 2014

Change the Weather History Date:

Saturday, January 18, 2014

  Actual Average (KDMN) Record (KDMN)
Temperature  
Mean Temperature 44 °F 42 °F  
Max Temperature 59 °F 57 °F 79 °F (1971)
Min Temperature 28 °F 27 °F 8 °F (1960)
Degree Days  
Heating Degree Days 22    
Moisture  
Dew Point 9 °F    
Average Humidity 29    
Maximum Humidity 43    
Minimum Humidity 14    
Precipitation  
Precipitation 0.00 in 0.02 in 0.51 in (1993)
Month to date precipitation 0.33  
Year to date precipitation 0.33  
Sea Level Pressure  
Sea Level Pressure 30.24 in    
Wind  
Wind Speed 9 mph (NNW)    
Max Wind Speed 14 mph    
Max Gust Speed 17 mph    
Visibility 10 miles    
Events      
T = Trace of Precipitation, MM = Missing Value Source: NWS Daily Summary

Daily Weather History Graph

Daily Weather History Graph

Search for Another Location

Airport or City:

Trip Planner

Search our weather history database for the weather conditions in past years. The results will help you decide how hot, cold, wet, or windy it might be!

Date:

Astronomy

Jan. 18, 2014 Rise Set
Actual Time 7:14 AM MST 5:32 PM MST
Civil Twilight 6:47 AM MST 5:58 PM MST
Nautical Twilight 6:17 AM MST 6:29 PM MST
Astronomical Twilight 5:47 AM MST 6:58 PM MST
Moon 8:05 PM MST (1/18) 8:25 AM MST (1/18)
Length of Visible Light 11h 11m
Length of Day
10h 18m
Waning Gibbous, 94% of the Moon is Illuminated
Jan 18
Waning Gibbous
Jan 23
Last Quarter
Jan 30
New
Feb 6
First Quarter
Feb 14
Full

Hourly Weather History & Observations

Time (MST) Temp. Windchill Dew Point Humidity Pressure Visibility Wind Dir Wind Speed Gust Speed Precip Events Conditions
12:15 AM 28.4 °F 18.5 °F 8.6 °F 43% 30.20 in 10.0 mi North 11.5 mph - N/A   Clear
12:35 AM 32.0 °F 23.0 °F 8.6 °F 38% 30.20 in 10.0 mi North 11.5 mph - N/A   Clear
12:55 AM 32.0 °F 24.2 °F 8.6 °F 38% 30.20 in 10.0 mi North 9.2 mph - N/A   Clear
1:15 AM 32.0 °F 23.6 °F 8.6 °F 38% 30.20 in 10.0 mi North 10.4 mph - N/A   Clear
1:35 AM 32.0 °F 23.0 °F 8.6 °F 38% 30.20 in 10.0 mi North 11.5 mph - N/A   Clear
1:55 AM 32.0 °F 22.5 °F 8.6 °F 38% 30.20 in 10.0 mi North 12.7 mph - N/A   Clear
2:15 AM 32.0 °F 23.0 °F 8.6 °F 38% 30.20 in 10.0 mi North 11.5 mph - N/A   Clear
2:35 AM 32.0 °F 23.6 °F 8.6 °F 38% 30.20 in 10.0 mi NNW 10.4 mph - N/A   Clear
2:55 AM 32.0 °F 23.0 °F 8.6 °F 38% 30.20 in 10.0 mi North 11.5 mph - N/A   Clear
3:15 AM 33.8 °F 26.4 °F 6.8 °F 32% 30.20 in 10.0 mi North 9.2 mph - N/A   Clear
3:35 AM 32.0 °F 23.6 °F 6.8 °F 35% 30.20 in 10.0 mi NNW 10.4 mph - N/A   Clear
3:55 AM 32.0 °F 23.0 °F 6.8 °F 35% 30.20 in 10.0 mi NNW 11.5 mph - N/A   Clear
4:15 AM 32.0 °F 23.6 °F 8.6 °F 38% 30.20 in 10.0 mi North 10.4 mph - N/A   Clear
4:35 AM 28.4 °F 19.7 °F 8.6 °F 43% 30.19 in 10.0 mi NNW 9.2 mph - N/A   Clear
4:55 AM 30.2 °F 21.9 °F 8.6 °F 40% 30.20 in 10.0 mi NW 9.2 mph - N/A   Clear
5:15 AM 32.0 °F 22.5 °F 8.6 °F 38% 30.20 in 10.0 mi NW 12.7 mph - N/A   Clear
5:35 AM 32.0 °F 23.0 °F 8.6 °F 38% 30.20 in 10.0 mi NNW 11.5 mph - N/A   Clear
5:55 AM 28.4 °F 17.5 °F 8.6 °F 43% 30.21 in 10.0 mi NNW 13.8 mph - N/A   Clear
6:15 AM 28.4 °F 19.1 °F 8.6 °F 43% 30.21 in 10.0 mi NNW 10.4 mph - N/A   Clear
6:35 AM 28.4 °F 18.5 °F 8.6 °F 43% 30.21 in 10.0 mi NW 11.5 mph - N/A   Clear
6:55 AM 32.0 °F 23.0 °F 8.6 °F 38% 30.21 in 10.0 mi NNW 11.5 mph - N/A   Clear
7:15 AM 32.0 °F 23.6 °F 8.6 °F 38% 30.21 in 10.0 mi NNW 10.4 mph - N/A   Clear
7:35 AM 32.0 °F 23.6 °F 8.6 °F 38% 30.22 in 10.0 mi NNW 10.4 mph - N/A   Clear
7:55 AM 33.8 °F 27.0 °F 10.4 °F 38% 30.23 in 10.0 mi North 8.1 mph - N/A   Clear
8:15 AM 37.4 °F 32.1 °F 10.4 °F 33% 30.24 in 10.0 mi NNW 6.9 mph - N/A   Clear
8:35 AM 41.0 °F 35.8 °F 10.4 °F 29% 30.24 in 10.0 mi NNW 8.1 mph - N/A   Clear
8:55 AM 44.6 °F 40.2 °F 10.4 °F 25% 30.25 in 10.0 mi NNW 8.1 mph - N/A   Clear
9:15 AM 46.4 °F - 10.4 °F 23% 30.26 in 10.0 mi Calm Calm - N/A   Clear
9:35 AM 48.2 °F - 10.4 °F 22% 30.27 in 10.0 mi Calm Calm - N/A   Clear
9:55 AM 50.0 °F - 10.4 °F 20% 30.27 in 10.0 mi SSE 3.5 mph - N/A   Clear
10:15 AM 51.8 °F - 8.6 °F 18% 30.28 in 10.0 mi SE 5.8 mph - N/A   Clear
10:35 AM 53.6 °F - 8.6 °F 16% 30.27 in 10.0 mi South 5.8 mph - N/A   Clear
10:55 AM 55.4 °F - 8.6 °F 15% 30.27 in 10.0 mi SW 3.5 mph - N/A   Clear
11:15 AM 55.4 °F - 8.6 °F 15% 30.27 in 10.0 mi South 5.8 mph - N/A   Clear
11:35 AM 57.2 °F - 8.6 °F 14% 30.26 in 10.0 mi South 8.1 mph - N/A   Clear
11:55 AM 57.2 °F - 8.6 °F 14% 30.25 in 10.0 mi South 6.9 mph - N/A   Clear
12:15 PM 57.2 °F - 8.6 °F 14% 30.24 in 10.0 mi SE 4.6 mph - N/A   Clear
12:35 PM 57.2 °F - 8.6 °F 14% 30.23 in 10.0 mi South 10.4 mph - N/A   Clear
12:55 PM 59.0 °F - 8.6 °F 14% 30.22 in 10.0 mi South 9.2 mph 16.1 mph N/A   Clear
1:15 PM 59.0 °F - 8.6 °F 14% 30.22 in 10.0 mi South 9.2 mph - N/A   Clear
1:35 PM 59.0 °F - 8.6 °F 14% 30.21 in 10.0 mi SSE 10.4 mph - N/A   Clear
1:55 PM 59.0 °F - 8.6 °F 14% 30.21 in 10.0 mi SSE 11.5 mph 17.3 mph N/A   Clear
2:15 PM 59.0 °F - 8.6 °F 14% 30.21 in 10.0 mi South 11.5 mph - N/A   Clear
2:35 PM 59.0 °F - 8.6 °F 14% 30.21 in 10.0 mi South 11.5 mph 16.1 mph N/A   Clear
2:55 PM 59.0 °F - 8.6 °F 14% 30.22 in 10.0 mi SSE 10.4 mph - N/A   Clear
3:15 PM 59.0 °F - 8.6 °F 14% 30.22 in 10.0 mi South 12.7 mph - N/A   Clear
3:35 PM 59.0 °F - 8.6 °F 14% 30.23 in 10.0 mi South 11.5 mph - N/A   Clear
3:55 PM 59.0 °F - 8.6 °F 14% 30.23 in 10.0 mi SSW 10.4 mph - N/A   Clear
4:15 PM 59.0 °F - 8.6 °F 14% 30.24 in 10.0 mi South 6.9 mph - N/A   Clear
4:35 PM 57.2 °F - 8.6 °F 14% 30.24 in 10.0 mi South 8.1 mph - N/A   Clear
4:55 PM 57.2 °F - 8.6 °F 14% 30.24 in 10.0 mi South 5.8 mph - N/A   Clear
5:15 PM 55.4 °F - 8.6 °F 15% 30.24 in 10.0 mi SSW 4.6 mph - N/A   Clear
5:35 PM 53.6 °F - 8.6 °F 16% 30.25 in 10.0 mi SW 3.5 mph - N/A   Clear
5:55 PM 50.0 °F - 8.6 °F 19% 30.25 in 10.0 mi Calm Calm - N/A   Clear
6:15 PM 50.0 °F - 8.6 °F 19% 30.25 in 10.0 mi Calm Calm - N/A   Clear
6:35 PM 41.0 °F - 6.8 °F 24% 30.26 in 10.0 mi Calm Calm - N/A   Clear
6:55 PM 35.6 °F 32.8 °F 6.8 °F 30% 30.27 in 10.0 mi NNE 3.5 mph - N/A   Clear
7:15 PM 37.4 °F 32.8 °F 6.8 °F 28% 30.27 in 10.0 mi ENE 5.8 mph - N/A   Clear
7:35 PM 32.0 °F 27.5 °F 6.8 °F 35% 30.28 in 10.0 mi NNE 4.6 mph - N/A   Clear
7:55 PM 32.0 °F 27.5 °F 6.8 °F 35% 30.29 in 10.0 mi NNE 4.6 mph - N/A   Clear
8:15 PM 32.0 °F - 6.8 °F 35% 30.29 in 10.0 mi Calm Calm - N/A   Clear
8:35 PM 32.0 °F 27.5 °F 8.6 °F 38% 30.30 in 10.0 mi North 4.6 mph - N/A   Clear
8:55 PM 30.2 °F 23.4 °F 8.6 °F 40% 30.31 in 10.0 mi North 6.9 mph - N/A   Clear
9:15 PM 32.0 °F 24.8 °F 8.6 °F 38% 30.31 in 10.0 mi North 8.1 mph - N/A   Clear
9:35 PM 32.0 °F 24.2 °F 8.6 °F 38% 30.32 in 10.0 mi North 9.2 mph - N/A   Clear
9:55 PM 32.0 °F 23.0 °F 8.6 °F 38% 30.32 in 10.0 mi North 11.5 mph - N/A   Clear
10:15 PM 28.4 °F 19.7 °F 8.6 °F 43% 30.32 in 10.0 mi North 9.2 mph - N/A   Clear
10:35 PM 28.4 °F 19.1 °F 8.6 °F 43% 30.33 in 10.0 mi North 10.4 mph - N/A   Clear
10:55 PM 32.0 °F 24.8 °F 8.6 °F 38% 30.33 in 10.0 mi NNW 8.1 mph - N/A   Clear
11:15 PM 32.0 °F 24.8 °F 8.6 °F 38% 30.33 in 10.0 mi NNW 8.1 mph - N/A   Clear
11:35 PM 32.0 °F 24.2 °F 8.6 °F 38% 30.33 in 10.0 mi North 9.2 mph - N/A   Clear
11:55 PM 28.4 °F 18.0 °F 8.6 °F 43% 30.33 in 10.0 mi North 12.7 mph - N/A   Clear